createdAt,value
2022-08-17T00:00:43.601Z,1.45
2022-08-17T00:03:17.569Z,1.88
2022-08-17T00:05:49.603Z,1.60
2022-08-17T00:08:21.684Z,2.55
2022-08-17T00:10:52.681Z,2.25
2022-08-17T00:13:27.532Z,1.65
2022-08-17T00:16:01.904Z,1.60
2022-08-17T00:19:02.079Z,2.40
2022-08-17T00:21:23.811Z,1.50
2022-08-17T00:23:55.279Z,1.70
2022-08-17T00:26:43.732Z,2.13
2022-08-17T00:29:19.374Z,1.85
2022-08-17T00:31:48.965Z,1.70
2022-08-17T00:34:18.006Z,1.58
2022-08-17T00:36:46.403Z,1.60
2022-08-17T00:39:14.870Z,2.40
2022-08-17T00:41:43.375Z,1.70
2022-08-17T00:44:12.833Z,2.70
2022-08-17T00:46:45.066Z,1.80
2022-08-17T00:49:15.628Z,2.15
2022-08-17T00:51:51.019Z,3.10
2022-08-17T00:54:26.475Z,1.90
2022-08-17T00:56:59.979Z,1.70
2022-08-17T00:59:32.963Z,1.70
2022-08-17T01:02:03.787Z,2.30
2022-08-17T01:04:33.849Z,1.60
2022-08-17T01:07:04.646Z,1.60
2022-08-17T01:09:34.135Z,1.70
2022-08-17T01:12:02.699Z,1.80
2022-08-17T01:14:31.189Z,1.77
2022-08-17T01:17:00.382Z,1.98
2022-08-17T01:19:36.462Z,2.10
2022-08-17T01:22:10.260Z,2.67
2022-08-17T01:24:43.457Z,2.03
2022-08-17T01:27:14.484Z,1.67
2022-08-17T01:29:46.561Z,3.25
2022-08-17T01:32:15.308Z,1.70
2022-08-17T01:34:50.556Z,4.10
2022-08-17T01:37:21.723Z,1.70
2022-08-17T01:39:59.093Z,2.85
2022-08-17T01:42:33.336Z,1.75
2022-08-17T01:45:09.757Z,1.98
2022-08-17T01:47:38.279Z,2.00
2022-08-17T01:50:10.864Z,3.13
2022-08-17T01:52:40.508Z,2.65
2022-08-17T01:55:11.651Z,1.70
2022-08-17T01:57:40.072Z,1.50
2022-08-17T02:00:11.308Z,1.67
2022-08-17T02:02:40.293Z,2.05
2022-08-17T02:05:10.137Z,1.77
2022-08-17T02:07:47.969Z,3.20
2022-08-17T02:10:32.911Z,2.63
2022-08-17T02:13:03.205Z,2.33
2022-08-17T02:15:32.067Z,1.83
2022-08-17T02:18:00.750Z,2.75
2022-08-17T02:20:42.331Z,3.33
2022-08-17T02:23:14.386Z,4.05
2022-08-17T02:25:48.777Z,1.70
2022-08-17T02:28:17.959Z,2.13
2022-08-17T02:31:00.335Z,1.80
2022-08-17T02:33:42.475Z,1.70
2022-08-17T02:36:13.995Z,2.35
2022-08-17T02:38:43.560Z,2.17
2022-08-17T02:41:13.775Z,2.00
2022-08-17T02:43:42.476Z,2.60
2022-08-17T02:46:12.754Z,2.38
2022-08-17T02:48:41.142Z,1.80
2022-08-17T02:51:09.656Z,1.70
2022-08-17T02:53:38.116Z,1.90
2022-08-17T02:56:06.785Z,1.87
2022-08-17T02:58:36.561Z,1.80
2022-08-17T03:01:06.349Z,3.20
2022-08-17T03:03:35.715Z,2.20
2022-08-17T03:06:05.023Z,4.05
2022-08-17T03:08:33.395Z,2.92
2022-08-17T03:11:01.858Z,3.80
2022-08-17T03:13:30.893Z,1.70
2022-08-17T03:16:00.673Z,1.97
2022-08-17T03:18:29.187Z,1.95
2022-08-17T03:21:01.261Z,2.42
2022-08-17T03:23:30.408Z,2.80
2022-08-17T03:26:00.098Z,2.95
2022-08-17T03:28:29.326Z,2.00
2022-08-17T03:30:57.693Z,2.07
2022-08-17T03:33:27.620Z,1.92
2022-08-17T03:35:56.143Z,2.10
2022-08-17T03:38:24.842Z,2.08
2022-08-17T03:40:59.428Z,2.33
2022-08-17T03:43:31.495Z,2.20
2022-08-17T03:46:34.114Z,2.00
2022-08-17T03:49:25.147Z,3.33
2022-08-17T03:52:12.144Z,2.55
2022-08-17T03:54:57.985Z,2.42
2022-08-17T03:57:26.890Z,2.50
2022-08-17T03:59:56.330Z,2.00
2022-08-17T04:02:29.407Z,4.03
2022-08-17T04:04:59.521Z,1.80
2022-08-17T04:07:30.604Z,1.88
2022-08-17T04:09:59.809Z,2.50
2022-08-17T04:12:30.937Z,2.00
2022-08-17T04:14:59.672Z,1.90
2022-08-17T04:17:30.841Z,2.30
2022-08-17T04:20:00.528Z,2.40
2022-08-17T04:22:30.558Z,2.13
2022-08-17T04:25:05.565Z,2.35
2022-08-17T04:27:34.015Z,3.10
2022-08-17T04:30:02.580Z,2.08
2022-08-17T04:33:04.896Z,2.87
2022-08-17T04:35:24.687Z,2.38
2022-08-17T04:37:53.815Z,2.22
2022-08-17T04:40:42.064Z,3.85
2022-08-17T04:43:15.737Z,2.55
2022-08-17T04:45:56.208Z,3.75
2022-08-17T04:48:35.625Z,2.83
2022-08-17T04:51:10.768Z,2.20
2022-08-17T04:53:40.827Z,3.23
2022-08-17T04:56:16.149Z,2.88
2022-08-17T04:58:47.905Z,2.65
2022-08-17T05:01:23.902Z,2.72
2022-08-17T05:03:53.896Z,2.55
2022-08-17T05:06:23.932Z,2.57
2022-08-17T05:08:52.377Z,4.85
2022-08-17T05:11:21.419Z,2.30
2022-08-17T05:13:50.804Z,2.87
2022-08-17T05:16:20.418Z,2.22
2022-08-17T05:18:49.372Z,2.22
2022-08-17T05:21:18.324Z,2.67
2022-08-17T05:23:53.237Z,2.20
2022-08-17T05:26:27.404Z,3.55
2022-08-17T05:29:02.515Z,3.60
2022-08-17T05:31:32.088Z,2.70
2022-08-17T05:34:00.478Z,2.50
2022-08-17T05:36:41.933Z,2.80
2022-08-17T05:39:15.817Z,2.10
2022-08-17T05:41:47.781Z,2.28
2022-08-17T05:44:16.615Z,2.25
2022-08-17T05:46:51.259Z,1.95
2022-08-17T05:49:27.221Z,3.03
2022-08-17T05:52:23.989Z,2.78
2022-08-17T05:55:17.317Z,2.30
2022-08-17T05:58:03.688Z,2.45
2022-08-17T06:00:44.177Z,2.03
2022-08-17T06:03:33.267Z,2.05
2022-08-17T06:06:18.205Z,2.08
2022-08-17T06:08:54.332Z,2.20
2022-08-17T06:11:35.339Z,3.90
2022-08-17T06:14:32.444Z,2.78
2022-08-17T06:17:05.608Z,3.33
2022-08-17T06:19:42.214Z,1.65
2022-08-17T06:22:16.838Z,1.67
2022-08-17T06:24:51.951Z,2.67
2022-08-17T06:27:32.309Z,4.68
2022-08-17T06:30:09.438Z,2.30
2022-08-17T06:32:39.203Z,4.45
2022-08-17T06:35:10.543Z,2.50
2022-08-17T06:38:37.091Z,3.20
2022-08-17T06:41:19.408Z,1.90
2022-08-17T06:44:09.974Z,3.10
2022-08-17T06:46:42.520Z,3.42
2022-08-17T06:49:21.901Z,4.60
2022-08-17T06:51:55.551Z,2.90
2022-08-17T06:54:35.205Z,2.30
2022-08-17T06:57:14.624Z,3.20
2022-08-17T06:59:56.189Z,2.70
2022-08-17T07:02:51.470Z,2.08
2022-08-17T07:05:26.022Z,1.60
2022-08-17T07:08:02.701Z,1.52
2022-08-17T07:10:43.769Z,2.72
2022-08-17T07:13:38.670Z,2.10
2022-08-17T07:16:20.616Z,2.27
2022-08-17T07:18:53.004Z,1.90
2022-08-17T07:21:46.071Z,2.22
2022-08-17T07:24:33.122Z,3.10
2022-08-17T07:27:23.602Z,3.13
2022-08-17T07:29:58.172Z,3.97
2022-08-17T07:32:31.877Z,2.35
2022-08-17T07:35:19.986Z,4.10
2022-08-17T07:37:53.234Z,4.65
2022-08-17T07:40:36.532Z,2.80
2022-08-17T07:43:19.914Z,2.58
2022-08-17T07:46:34.439Z,4.28
2022-08-17T07:49:21.886Z,4.50
2022-08-17T07:52:47.738Z,2.55
2022-08-17T07:54:50.218Z,3.38
2022-08-17T07:57:36.413Z,2.92
2022-08-17T08:00:26.703Z,4.03
2022-08-17T08:03:13.615Z,4.97
2022-08-17T08:05:54.992Z,2.70
2022-08-17T08:08:29.558Z,4.00
2022-08-17T08:11:29.314Z,3.73
2022-08-17T08:14:17.674Z,3.55
2022-08-17T08:17:00.204Z,4.50
2022-08-17T08:19:30.175Z,5.32
2022-08-17T08:22:07.727Z,5.87
2022-08-17T08:24:56.329Z,4.57
2022-08-17T08:27:41.327Z,4.03
2022-08-17T08:30:14.754Z,5.07
2022-08-17T08:33:18.207Z,6.57
2022-08-17T08:35:54.458Z,3.65
2022-08-17T08:38:42.661Z,2.92
2022-08-17T08:41:35.644Z,7.23
2022-08-17T08:44:59.473Z,7.80
2022-08-17T08:47:38.784Z,4.10
2022-08-17T08:50:37.184Z,4.18
2022-08-17T08:53:21.359Z,3.50
2022-08-17T08:55:57.028Z,5.82
2022-08-17T08:58:41.637Z,3.97
2022-08-17T09:01:22.054Z,6.07
2022-08-17T09:04:24.118Z,4.57
2022-08-17T09:07:12.198Z,4.07
2022-08-17T09:09:59.329Z,2.90
2022-08-17T09:12:42.077Z,4.13
2022-08-17T09:15:17.993Z,5.95
2022-08-17T09:18:28.421Z,4.00
2022-08-17T09:20:51.080Z,4.30
2022-08-17T09:23:32.847Z,3.42
2022-08-17T09:26:11.554Z,4.47
2022-08-17T09:28:49.495Z,3.10
2022-08-17T09:31:24.221Z,3.20
2022-08-17T09:33:53.845Z,4.40
2022-08-17T09:36:31.174Z,7.22
2022-08-17T09:39:07.115Z,4.40
2022-08-17T09:41:48.666Z,6.07
2022-08-17T09:44:29.093Z,5.70
2022-08-17T09:47:06.706Z,6.53
2022-08-17T09:49:44.093Z,4.38
2022-08-17T09:52:19.670Z,7.70
2022-08-17T09:54:51.901Z,5.50
2022-08-17T09:57:37.253Z,5.43
2022-08-17T10:00:21.435Z,5.55
2022-08-17T10:03:09.719Z,5.90
2022-08-17T10:05:46.455Z,4.82
2022-08-17T10:08:29.461Z,5.13
2022-08-17T10:11:18.540Z,7.10
2022-08-17T10:13:58.759Z,6.53
2022-08-17T10:16:41.157Z,8.48
2022-08-17T10:19:19.397Z,5.68
2022-08-17T10:22:32.372Z,7.80
2022-08-17T10:25:22.763Z,5.30
2022-08-17T10:28:00.166Z,7.03
2022-08-17T10:30:34.414Z,9.50
2022-08-17T10:33:14.482Z,6.55
2022-08-17T10:35:52.664Z,6.00
2022-08-17T10:38:42.292Z,5.47
2022-08-17T10:41:29.368Z,6.78
2022-08-17T10:44:38.729Z,6.75
2022-08-17T10:47:10.579Z,4.35
2022-08-17T10:49:45.736Z,4.88
2022-08-17T10:52:50.576Z,6.30
2022-08-17T10:55:21.335Z,8.82
2022-08-17T10:57:54.880Z,6.22
2022-08-17T11:00:58.536Z,6.97
2022-08-17T11:03:27.657Z,6.47
2022-08-17T11:06:12.767Z,10.05
2022-08-17T11:09:08.074Z,7.68
2022-08-17T11:11:57.495Z,5.67
2022-08-17T11:15:08.426Z,4.57
2022-08-17T11:18:33.890Z,7.05
2022-08-17T11:21:37.691Z,7.25
2022-08-17T11:24:20.359Z,7.00
2022-08-17T11:27:12.235Z,7.35
2022-08-17T11:29:59.437Z,5.93
2022-08-17T11:32:47.834Z,5.63
2022-08-17T11:35:38.730Z,6.18
2022-08-17T11:38:19.635Z,9.10
2022-08-17T11:41:11.993Z,6.77
2022-08-17T11:44:08.273Z,8.87
2022-08-17T11:47:20.548Z,7.30
2022-08-17T11:50:36.255Z,10.32
2022-08-17T11:53:05.023Z,7.63
2022-08-17T11:56:07.394Z,9.33
2022-08-17T11:58:41.992Z,7.40
2022-08-17T12:01:16.035Z,9.82
2022-08-17T12:03:55.492Z,8.98
2022-08-17T12:06:47.922Z,9.13
2022-08-17T12:09:24.636Z,9.63
2022-08-17T12:12:13.000Z,7.47
2022-08-17T12:17:52.275Z,7.93
2022-08-17T12:20:28.017Z,8.52
2022-08-17T12:23:10.330Z,8.57
2022-08-17T12:25:44.548Z,10.05
2022-08-17T12:28:25.781Z,10.38
2022-08-17T12:30:54.997Z,8.87
2022-08-17T12:33:28.864Z,8.77
2022-08-17T12:36:02.876Z,8.52
2022-08-17T12:38:35.101Z,8.50
2022-08-17T12:41:21.824Z,10.55
2022-08-17T12:44:01.742Z,7.88
2022-08-17T12:46:34.930Z,9.95
2022-08-17T12:49:27.534Z,10.73
2022-08-17T12:52:06.297Z,8.93
2022-08-17T12:54:50.834Z,11.13
2022-08-17T12:57:24.537Z,11.75
2022-08-17T12:59:59.884Z,13.17
2022-08-17T13:02:40.244Z,9.57
2022-08-17T13:05:19.165Z,9.97
2022-08-17T13:07:47.864Z,11.00
2022-08-17T13:10:28.649Z,11.00
2022-08-17T13:13:04.912Z,10.85
2022-08-17T13:15:43.202Z,9.18
2022-08-17T13:18:41.523Z,11.30
2022-08-17T13:21:26.941Z,10.57
2022-08-17T13:24:01.616Z,8.40
2022-08-17T13:26:34.441Z,11.90
2022-08-17T13:29:06.313Z,12.07
2022-08-17T13:31:51.774Z,9.55
2022-08-17T13:34:48.246Z,9.38
2022-08-17T13:37:33.557Z,8.77
2022-08-17T13:40:20.690Z,9.10
2022-08-17T13:42:53.971Z,10.63
2022-08-17T13:46:08.231Z,9.80
2022-08-17T13:48:38.451Z,10.52
2022-08-17T13:51:28.255Z,11.30
2022-08-17T13:54:26.557Z,10.60
2022-08-17T13:57:04.577Z,11.82
2022-08-17T13:59:54.585Z,13.65
2022-08-17T14:02:28.640Z,12.52
2022-08-17T14:05:00.582Z,9.65
2022-08-17T14:07:34.793Z,10.27
2022-08-17T14:10:10.383Z,10.90
2022-08-17T14:12:41.630Z,11.55
2022-08-17T14:15:12.894Z,10.27
2022-08-17T14:17:41.275Z,12.05
2022-08-17T14:20:14.393Z,10.63
2022-08-17T14:22:49.572Z,7.80
2022-08-17T14:25:22.638Z,10.65
2022-08-17T14:27:54.084Z,9.88
2022-08-17T14:30:28.953Z,8.23
2022-08-17T14:32:59.872Z,10.03
2022-08-17T14:35:30.103Z,10.02
2022-08-17T14:37:59.122Z,11.80
2022-08-17T14:40:28.130Z,8.73
2022-08-17T14:42:58.508Z,8.68
2022-08-17T14:45:32.533Z,8.75
2022-08-17T14:48:05.803Z,10.45
2022-08-17T14:50:38.409Z,8.98
2022-08-17T14:53:08.005Z,7.68
2022-08-17T14:55:39.959Z,10.68
2022-08-17T14:58:09.093Z,11.07
2022-08-17T15:00:38.580Z,8.18
2022-08-17T15:03:07.374Z,7.32
2022-08-17T15:05:39.383Z,10.45
2022-08-17T15:08:08.618Z,9.10
2022-08-17T15:10:37.408Z,7.47
2022-08-17T15:13:06.026Z,8.18
2022-08-17T15:15:34.608Z,7.70
2022-08-17T15:18:03.463Z,9.33
2022-08-17T15:20:32.118Z,9.30
2022-08-17T15:23:01.831Z,7.93
2022-08-17T15:25:32.966Z,8.35
2022-08-17T15:28:03.125Z,8.57
2022-08-17T15:30:32.660Z,7.10
2022-08-17T15:33:02.791Z,6.47
2022-08-17T15:35:33.932Z,7.43
2022-08-17T15:38:12.169Z,8.50
2022-08-17T15:40:44.595Z,7.43
2022-08-17T15:43:16.452Z,11.77
2022-08-17T15:45:56.786Z,10.35
2022-08-17T15:48:40.816Z,11.30
2022-08-17T15:51:12.119Z,10.05
2022-08-17T15:53:43.578Z,7.30
2022-08-17T15:56:13.675Z,9.37
2022-08-17T15:58:44.374Z,10.15
2022-08-17T16:01:18.820Z,8.90
2022-08-17T16:04:06.703Z,13.18
2022-08-17T16:06:35.742Z,7.97
2022-08-17T16:09:05.646Z,7.70
2022-08-17T16:11:33.962Z,6.77
2022-08-17T16:14:02.318Z,8.50
2022-08-17T16:16:31.313Z,7.45
2022-08-17T16:18:59.718Z,7.23
2022-08-17T16:21:30.020Z,8.40
2022-08-17T16:24:14.909Z,9.02
2022-08-17T16:26:43.773Z,6.60
2022-08-17T16:29:12.467Z,7.20
2022-08-17T16:31:41.466Z,8.73
2022-08-17T16:34:16.839Z,8.48
2022-08-17T16:36:54.689Z,8.55
2022-08-17T16:39:27.059Z,6.95
2022-08-17T16:41:56.192Z,7.57
2022-08-17T16:44:25.919Z,6.85
2022-08-17T16:46:54.507Z,8.27
2022-08-17T16:49:35.897Z,6.93
2022-08-17T16:52:10.112Z,7.93
2022-08-17T16:54:43.766Z,7.50
2022-08-17T16:57:13.200Z,7.43
2022-08-17T16:59:47.470Z,8.57
2022-08-17T17:02:17.947Z,5.68
2022-08-17T17:04:54.577Z,6.82
2022-08-17T17:08:03.220Z,7.27
2022-08-17T17:10:39.331Z,7.13
2022-08-17T17:13:14.072Z,8.10
2022-08-17T17:15:56.449Z,7.63
2022-08-17T17:18:40.581Z,5.47
2022-08-17T17:21:17.500Z,5.82
2022-08-17T17:23:56.053Z,5.57
2022-08-17T17:26:50.400Z,5.10
2022-08-17T17:29:47.220Z,6.20
2022-08-17T17:32:26.465Z,5.75
2022-08-17T17:35:02.801Z,6.20
2022-08-17T17:37:36.399Z,6.65
2022-08-17T17:40:14.717Z,2.50
2022-08-17T17:42:45.773Z,2.00
2022-08-17T17:45:21.066Z,3.63
2022-08-17T17:47:49.955Z,2.60
2022-08-17T17:50:22.493Z,1.85
2022-08-17T17:53:02.170Z,5.13
2022-08-17T17:55:48.854Z,1.83
2022-08-17T17:58:35.415Z,4.40
2022-08-17T18:01:24.001Z,5.67
2022-08-17T18:04:20.413Z,5.03
2022-08-17T18:07:13.306Z,4.60
2022-08-17T18:10:02.933Z,4.30
2022-08-17T18:12:43.105Z,5.35
2022-08-17T18:15:37.125Z,4.93
2022-08-17T18:18:37.902Z,5.10
2022-08-17T18:21:15.848Z,4.88
2022-08-17T18:23:56.476Z,5.15
2022-08-17T18:26:48.334Z,5.25
2022-08-17T18:29:35.896Z,5.40
2022-08-17T18:32:37.106Z,6.07
2022-08-17T18:35:51.500Z,4.85
2022-08-17T18:38:33.693Z,5.20
2022-08-17T18:41:21.158Z,4.97
2022-08-17T18:44:03.231Z,4.47
2022-08-17T18:46:36.599Z,5.03
2022-08-17T18:49:26.282Z,5.60
2022-08-17T18:52:23.228Z,5.40
2022-08-17T18:55:05.648Z,4.70
2022-08-17T18:57:37.885Z,4.85
2022-08-17T19:00:14.254Z,4.90
2022-08-17T19:02:55.762Z,5.05
2022-08-17T19:05:35.404Z,4.88
2022-08-17T19:08:36.021Z,3.03
2022-08-17T19:11:08.475Z,2.90
2022-08-17T19:13:42.137Z,4.47
2022-08-17T19:16:18.109Z,3.10
2022-08-17T19:18:53.481Z,5.53
2022-08-17T19:21:27.998Z,2.78
2022-08-17T19:24:04.558Z,3.92
2022-08-17T19:26:54.549Z,4.22
2022-08-17T19:29:34.369Z,2.70
2022-08-17T19:32:03.511Z,3.80
2022-08-17T19:34:35.605Z,2.47
2022-08-17T19:37:20.986Z,3.10
2022-08-17T19:40:03.974Z,2.00
2022-08-17T19:42:47.506Z,2.63
2022-08-17T19:45:29.775Z,2.90
2022-08-17T19:48:13.539Z,2.30
2022-08-17T19:50:50.903Z,2.17
2022-08-17T19:54:01.501Z,3.50
2022-08-17T19:56:31.708Z,6.00
2022-08-17T19:59:10.343Z,3.72
2022-08-17T20:01:48.622Z,4.93
2022-08-17T20:04:31.986Z,4.47
2022-08-17T20:07:07.343Z,3.42
2022-08-17T20:09:41.204Z,1.35
2022-08-17T20:12:14.479Z,1.77
2022-08-17T20:14:53.388Z,2.23
2022-08-17T20:17:28.609Z,3.00
2022-08-17T20:20:08.217Z,1.42
2022-08-17T20:22:55.157Z,1.52
2022-08-17T20:25:34.498Z,1.73
2022-08-17T20:28:16.466Z,1.30
2022-08-17T20:30:48.970Z,1.40
2022-08-17T20:33:27.722Z,1.58
2022-08-17T20:36:18.651Z,1.98
2022-08-17T20:38:50.596Z,3.53
2022-08-17T20:41:22.942Z,1.80
2022-08-17T20:44:07.473Z,3.05
2022-08-17T20:46:57.901Z,1.60
2022-08-17T20:49:38.841Z,3.28
2022-08-17T20:52:09.164Z,3.03
2022-08-17T20:54:49.856Z,1.58
2022-08-17T20:57:49.072Z,1.60
2022-08-17T21:00:46.970Z,1.40
2022-08-17T21:03:57.455Z,1.60
2022-08-17T21:06:26.568Z,1.48
2022-08-17T21:09:01.567Z,2.40
2022-08-17T21:12:05.061Z,2.00
2022-08-17T21:15:01.085Z,2.25
2022-08-17T21:17:48.368Z,2.53
2022-08-17T21:20:35.721Z,1.77
2022-08-17T21:23:34.181Z,3.58
2022-08-17T21:26:17.452Z,1.50
2022-08-17T21:29:17.891Z,1.50
2022-08-17T21:32:24.170Z,1.90
2022-08-17T21:35:28.487Z,1.80
2022-08-17T21:38:05.081Z,1.73
2022-08-17T21:40:36.324Z,1.55
2022-08-17T21:43:23.645Z,1.80
2022-08-17T21:46:03.451Z,6.30
2022-08-17T21:48:44.377Z,2.67
2022-08-17T21:51:19.085Z,1.73
2022-08-17T21:53:52.045Z,1.92
2022-08-17T21:56:30.562Z,1.75
2022-08-17T21:59:02.860Z,1.73
2022-08-17T22:01:34.931Z,1.70
2022-08-17T22:04:18.920Z,5.17
2022-08-17T22:06:56.922Z,3.55
2022-08-17T22:09:31.597Z,1.80
2022-08-17T22:12:07.109Z,6.37
2022-08-17T22:14:53.297Z,7.90
2022-08-17T22:17:25.181Z,1.80
2022-08-17T22:19:59.916Z,2.00
2022-08-17T22:22:56.534Z,3.63
2022-08-17T22:25:27.020Z,2.90
2022-08-17T22:28:00.177Z,5.25
2022-08-17T22:30:34.221Z,7.75
2022-08-17T22:33:19.171Z,5.20
2022-08-17T22:35:49.462Z,2.20
2022-08-17T22:38:32.620Z,2.33
2022-08-17T22:41:42.361Z,4.97
2022-08-17T22:44:27.133Z,2.05
2022-08-17T22:47:03.006Z,2.10
2022-08-17T22:49:38.595Z,2.10
2022-08-17T22:52:35.322Z,2.30
2022-08-17T22:55:32.533Z,4.82
2022-08-17T22:58:19.413Z,2.38
2022-08-17T23:00:51.114Z,4.07
2022-08-17T23:03:22.495Z,11.23
2022-08-17T23:06:06.850Z,6.43
2022-08-17T23:08:43.913Z,3.30
2022-08-17T23:11:12.251Z,2.90
2022-08-17T23:13:40.587Z,2.00
2022-08-17T23:16:08.927Z,1.92
2022-08-17T23:18:37.492Z,2.63
2022-08-17T23:21:07.762Z,1.73
2022-08-17T23:23:38.051Z,2.00
2022-08-17T23:26:11.368Z,1.95
2022-08-17T23:28:41.081Z,2.25
2022-08-17T23:31:09.830Z,3.20
2022-08-17T23:33:40.884Z,2.50
2022-08-17T23:36:15.366Z,2.92
2022-08-17T23:38:46.689Z,6.32
2022-08-17T23:41:19.461Z,4.05
2022-08-17T23:43:52.826Z,4.03
2022-08-17T23:46:22.438Z,2.45
2022-08-17T23:48:54.215Z,3.63
2022-08-17T23:51:27.670Z,9.77
2022-08-17T23:54:07.977Z,7.60
2022-08-17T23:56:42.090Z,7.15
2022-08-17T23:59:10.389Z,2.28
